Hana — 2BCV4 — position and weather

sailwx.info

Track history (hours):
 
Tides and Currents Weather Stations Pressure Air Temp Water Temp Dewpoint Dewpoint Depression Visibility Wind Speed Wind Dir Waves Ship Positions

Hana

Last reported at 2017-Jun-26 14:24 UTC. Time now 2017-Jun-26 21:04 UTC.
Position N 36°58' E 015°13'.

Length 42 m; draft 2.7 m.

Type: Pleasure craft. MMSI: 235065022.

Date/timePositionNaut miles runAvg speedWind from/ knotsBaromVisibWave heightAir tempDewpointWater temp
2017-Jun-26 14:24N 36°58' E 015°13'0 0.0
2017-Jun-26 10:29N 36°58' E 015°13'5 9.6
2017-Jun-26 10:00N 36°59' E 015°18'5 0.8
2017-Jun-26 04:02N 37°04' E 015°17'0 0.0
2017-Jun-26 04:00N 37°04' E 015°17'47 1.1
2017-Jun-24 11:03N 37°50' E 015°18'1 6.8
2017-Jun-24 10:58N 37°51' E 015°18'5 9.4
2017-Jun-24 10:29N 37°54' E 015°22'510.5
2017-Jun-24 10:00N 37°58' E 015°25'510.4
2017-Jun-24 09:30N 38°03' E 015°29'510.2
2017-Jun-24 09:00N 38°07' E 015°32'510.3
2017-Jun-24 08:30N 38°12' E 015°35'611.6
2017-Jun-24 08:00N 38°16' E 015°40'510.1
2017-Jun-24 07:30N 38°19' E 015°35'4 8.8
2017-Jun-24 07:00N 38°21' E 015°30'5 9.0
2017-Jun-24 06:30N 38°22' E 015°24'510.3
2017-Jun-24 06:00N 38°23' E 015°18'510.2
2017-Jun-24 05:30N 38°25' E 015°12'510.0
2017-Jun-24 04:58N 38°27' E 015°05'5 9.8
2017-Jun-24 04:29N 38°28' E 014°59'5 0.2
2017-Jun-22 17:00N 38°23' E 015°01'1 1.4
2017-Jun-22 16:12N 38°22' E 014°60'0 0.0
2017-Jun-22 13:54N 38°22' E 014°60'0 0.0
2017-Jun-22 13:28N 38°22' E 014°60'0 0.2
2017-Jun-22 12:03N 38°22' E 014°60'1 7.8
2017-Jun-22 11:56N 38°23' E 015°01'3 7.3
2017-Jun-22 11:29N 38°25' E 014°58'0 0.8
2017-Jun-22 11:00N 38°25' E 014°58'0 0.0
2017-Jun-22 10:30N 38°25' E 014°58'0 0.0
2017-Jun-22 10:00N 38°25' E 014°58'0 0.0
2017-Jun-22 09:30N 38°25' E 014°58'0 0.0
2017-Jun-22 09:00N 38°25' E 014°58'0 0.0
2017-Jun-22 08:24N 38°25' E 014°58'133 3.3
2017-Jun-20 16:11N 40°34' E 014°16'1 4.1
2017-Jun-20 16:00N 40°33' E 014°16'0 0.0
2017-Jun-20 14:56N 40°33' E 014°16'0 0.0
2017-Jun-20 13:59N 40°33' E 014°16'1 0.1
2017-Jun-19 23:11N 40°33' E 014°15'0 0.0
2017-Jun-19 23:00N 40°33' E 014°15'0 0.0
2017-Jun-19 20:59N 40°33' E 014°15'0 0.0
2017-Jun-19 19:21N 40°33' E 014°15'0 0.3
2017-Jun-19 19:00N 40°33' E 014°15'  
2017-Jun-17 12:02N 40°50' E 014°13'0 0.0
2017-Jun-17 11:35N 40°50' E 014°13'0 0.0
2017-Jun-17 11:23N 40°50' E 014°13'0 0.0
2017-Jun-17 10:50N 40°50' E 014°13'0 0.0
2017-Jun-17 05:35N 40°50' E 014°13'0 0.0
2017-Jun-17 03:35N 40°50' E 014°13'0 0.0
2017-Jun-17 03:26N 40°50' E 014°13'0 0.0
2017-Jun-17 02:59N 40°50' E 014°13'0 0.0
2017-Jun-16 23:56N 40°50' E 014°13'0 0.0
2017-Jun-16 21:44N 40°50' E 014°13'0 0.0
2017-Jun-16 21:20N 40°50' E 014°13'0 0.0
2017-Jun-16 20:26N 40°50' E 014°13'0 0.0
2017-Jun-16 19:59N 40°50' E 014°13'0 0.0
2017-Jun-16 19:29N 40°50' E 014°13'0 0.0
2017-Jun-16 18:26N 40°50' E 014°13'0 0.0
2017-Jun-16 16:20N 40°50' E 014°13'0 0.0
2017-Jun-16 15:56N 40°50' E 014°13'0 0.0
2017-Jun-16 15:29N 40°50' E 014°13'  
Track history (hours):
 
Tides and Currents Weather Stations Pressure Air Temp Water Temp Dewpoint Dewpoint Depression Visibility Wind Speed Wind Dir Waves Ship Positions

Hana

Last reported at 2017-Jun-26 14:24 UTC. Time now 2017-Jun-26 21:04 UTC.
Position N 36°58' E 015°13'.

Length 42 m; draft 2.7 m.

Type: Pleasure craft. MMSI: 235065022.

Date/timePositionNaut miles runAvg speedWind from/ knotsBaromVisibWave heightAir tempDewpointWater temp
2017-Jun-26 14:24N 36°58' E 015°13'0 0.0
2017-Jun-26 10:29N 36°58' E 015°13'5 9.6
2017-Jun-26 10:00N 36°59' E 015°18'5 0.8
2017-Jun-26 04:02N 37°04' E 015°17'0 0.0
2017-Jun-26 04:00N 37°04' E 015°17'47 1.1
2017-Jun-24 11:03N 37°50' E 015°18'1 6.8
2017-Jun-24 10:58N 37°51' E 015°18'5 9.4
2017-Jun-24 10:29N 37°54' E 015°22'510.5
2017-Jun-24 10:00N 37°58' E 015°25'510.4
2017-Jun-24 09:30N 38°03' E 015°29'510.2
2017-Jun-24 09:00N 38°07' E 015°32'510.3
2017-Jun-24 08:30N 38°12' E 015°35'611.6
2017-Jun-24 08:00N 38°16' E 015°40'510.1
2017-Jun-24 07:30N 38°19' E 015°35'4 8.8
2017-Jun-24 07:00N 38°21' E 015°30'5 9.0
2017-Jun-24 06:30N 38°22' E 015°24'510.3
2017-Jun-24 06:00N 38°23' E 015°18'510.2
2017-Jun-24 05:30N 38°25' E 015°12'510.0
2017-Jun-24 04:58N 38°27' E 015°05'5 9.8
2017-Jun-24 04:29N 38°28' E 014°59'5 0.2
2017-Jun-22 17:00N 38°23' E 015°01'1 1.4
2017-Jun-22 16:12N 38°22' E 014°60'0 0.0
2017-Jun-22 13:54N 38°22' E 014°60'0 0.0
2017-Jun-22 13:28N 38°22' E 014°60'0 0.2
2017-Jun-22 12:03N 38°22' E 014°60'1 7.8
2017-Jun-22 11:56N 38°23' E 015°01'3 7.3
2017-Jun-22 11:29N 38°25' E 014°58'0 0.8
2017-Jun-22 11:00N 38°25' E 014°58'0 0.0
2017-Jun-22 10:30N 38°25' E 014°58'0 0.0
2017-Jun-22 10:00N 38°25' E 014°58'0 0.0
2017-Jun-22 09:30N 38°25' E 014°58'0 0.0
2017-Jun-22 09:00N 38°25' E 014°58'0 0.0
2017-Jun-22 08:24N 38°25' E 014°58'133 3.3
2017-Jun-20 16:11N 40°34' E 014°16'1 4.1
2017-Jun-20 16:00N 40°33' E 014°16'0 0.0
2017-Jun-20 14:56N 40°33' E 014°16'0 0.0
2017-Jun-20 13:59N 40°33' E 014°16'1 0.1
2017-Jun-19 23:11N 40°33' E 014°15'0 0.0
2017-Jun-19 23:00N 40°33' E 014°15'0 0.0
2017-Jun-19 20:59N 40°33' E 014°15'0 0.0
2017-Jun-19 19:21N 40°33' E 014°15'0 0.3
2017-Jun-19 19:00N 40°33' E 014°15'  
2017-Jun-17 12:02N 40°50' E 014°13'0 0.0
2017-Jun-17 11:35N 40°50' E 014°13'0 0.0
2017-Jun-17 11:23N 40°50' E 014°13'0 0.0
2017-Jun-17 10:50N 40°50' E 014°13'0 0.0
2017-Jun-17 05:35N 40°50' E 014°13'0 0.0
2017-Jun-17 03:35N 40°50' E 014°13'0 0.0
2017-Jun-17 03:26N 40°50' E 014°13'0 0.0
2017-Jun-17 02:59N 40°50' E 014°13'0 0.0
2017-Jun-16 23:56N 40°50' E 014°13'0 0.0
2017-Jun-16 21:44N 40°50' E 014°13'0 0.0
2017-Jun-16 21:20N 40°50' E 014°13'0 0.0
2017-Jun-16 20:26N 40°50' E 014°13'0 0.0
2017-Jun-16 19:59N 40°50' E 014°13'0 0.0
2017-Jun-16 19:29N 40°50' E 014°13'0 0.0
2017-Jun-16 18:26N 40°50' E 014°13'0 0.0
2017-Jun-16 16:20N 40°50' E 014°13'0 0.0
2017-Jun-16 15:56N 40°50' E 014°13'0 0.0
2017-Jun-16 15:29N 40°50' E 014°13'  

Dump ship's entire track history